createdAt,value
2022-12-13T00:01:09.555Z,32.85
2022-12-13T00:03:36.343Z,32.60
2022-12-13T00:06:03.084Z,32.46
2022-12-13T00:08:29.898Z,33.31
2022-12-13T00:10:56.683Z,33.43
2022-12-13T00:13:23.404Z,34.41
2022-12-13T00:15:50.144Z,34.67
2022-12-13T00:18:16.880Z,34.50
2022-12-13T00:20:43.617Z,33.92
2022-12-13T00:23:10.368Z,33.75
2022-12-13T00:25:37.091Z,33.74
2022-12-13T00:28:03.950Z,33.57
2022-12-13T00:30:33.581Z,33.47
2022-12-13T00:33:00.364Z,33.04
2022-12-13T00:35:27.108Z,33.07
2022-12-13T00:37:53.845Z,32.92
2022-12-13T00:40:21.148Z,32.78
2022-12-13T00:42:48.154Z,32.60
2022-12-13T00:45:15.276Z,32.48
2022-12-13T00:47:42.167Z,32.64
2022-12-13T00:50:08.944Z,33.42
2022-12-13T00:52:35.689Z,34.00
2022-12-13T00:55:02.411Z,35.72
2022-12-13T00:57:29.187Z,35.27
2022-12-13T00:59:55.935Z,34.46
2022-12-13T01:02:22.663Z,34.08
2022-12-13T01:04:49.386Z,33.75
2022-12-13T01:07:16.127Z,33.09
2022-12-13T01:09:42.961Z,32.94
2022-12-13T01:12:10.069Z,32.87
2022-12-13T01:14:36.887Z,32.89
2022-12-13T01:17:03.658Z,32.52
2022-12-13T01:19:30.456Z,32.85
2022-12-13T01:21:57.203Z,32.70
2022-12-13T01:24:26.742Z,32.38
2022-12-13T01:26:57.191Z,32.58
2022-12-13T01:29:24.125Z,32.23
2022-12-13T01:31:52.890Z,32.35
2022-12-13T01:34:19.625Z,33.17
2022-12-13T01:36:46.387Z,33.28
2022-12-13T01:39:15.051Z,34.68
2022-12-13T01:41:42.156Z,34.62
2022-12-13T01:44:08.885Z,33.85
2022-12-13T01:46:35.922Z,33.69
2022-12-13T01:49:02.723Z,33.68
2022-12-13T01:51:29.483Z,33.24
2022-12-13T01:53:56.216Z,32.95
2022-12-13T01:56:22.949Z,32.80
2022-12-13T01:58:49.734Z,32.76
2022-12-13T02:01:18.893Z,32.47
2022-12-13T02:03:45.668Z,32.55
2022-12-13T02:06:12.403Z,32.38
2022-12-13T02:08:39.130Z,32.20
2022-12-13T02:11:05.860Z,32.82
2022-12-13T02:13:32.599Z,33.46
2022-12-13T02:15:59.354Z,34.87
2022-12-13T02:18:26.113Z,34.49
2022-12-13T02:20:52.934Z,34.30
2022-12-13T02:23:20.862Z,33.88
2022-12-13T02:25:47.604Z,33.62
2022-12-13T02:28:30.430Z,33.28
2022-12-13T02:30:58.863Z,32.91
2022-12-13T02:33:25.638Z,32.75
2022-12-13T02:35:53.164Z,32.65
2022-12-13T02:38:24.470Z,32.42
2022-12-13T02:40:51.532Z,32.35
2022-12-13T02:43:18.250Z,32.32
2022-12-13T02:45:48.318Z,32.39
2022-12-13T02:48:15.045Z,32.36
2022-12-13T02:50:41.792Z,32.19
2022-12-13T02:53:08.532Z,32.13
2022-12-13T02:55:36.750Z,31.99
2022-12-13T02:58:03.521Z,33.24
2022-12-13T03:00:30.253Z,33.91
2022-12-13T03:02:57.320Z,35.14
2022-12-13T03:05:42.725Z,34.28
2022-12-13T03:08:09.497Z,33.75
2022-12-13T03:10:36.230Z,33.55
2022-12-13T03:13:21.930Z,32.98
2022-12-13T03:15:48.802Z,32.69
2022-12-13T03:18:15.719Z,32.51
2022-12-13T03:20:42.567Z,32.53
2022-12-13T03:23:09.412Z,32.24
2022-12-13T03:25:36.136Z,32.08
2022-12-13T03:28:03.080Z,31.94
2022-12-13T03:30:29.850Z,31.96
2022-12-13T03:32:56.580Z,31.90
2022-12-13T03:35:23.360Z,32.05
2022-12-13T03:37:50.163Z,32.73
2022-12-13T03:40:16.898Z,32.92
2022-12-13T03:42:43.639Z,33.84
2022-12-13T03:45:10.382Z,33.89
2022-12-13T03:47:37.105Z,33.55
2022-12-13T03:50:25.369Z,33.31
2022-12-13T03:52:53.338Z,32.97
2022-12-13T03:55:21.940Z,33.02
2022-12-13T03:57:48.668Z,32.61
2022-12-13T04:00:15.392Z,32.39
2022-12-13T04:02:42.169Z,32.38
2022-12-13T04:05:08.918Z,32.28
2022-12-13T04:07:35.631Z,32.12
2022-12-13T04:10:02.442Z,31.95
2022-12-13T04:12:48.699Z,31.98
2022-12-13T04:15:16.002Z,32.29
2022-12-13T04:17:42.969Z,33.32
2022-12-13T04:20:17.848Z,35.00
2022-12-13T04:22:44.577Z,33.99
2022-12-13T04:25:11.378Z,33.56
2022-12-13T04:27:38.183Z,33.32
2022-12-13T04:30:04.939Z,32.91
2022-12-13T04:32:31.688Z,32.59
2022-12-13T04:35:01.117Z,32.26
2022-12-13T04:37:28.417Z,32.38
2022-12-13T04:40:00.764Z,32.28
2022-12-13T04:42:28.035Z,31.88
2022-12-13T04:44:54.800Z,31.76
2022-12-13T04:47:21.558Z,31.83
2022-12-13T04:49:48.298Z,31.65
2022-12-13T04:52:22.226Z,31.75
2022-12-13T04:54:55.824Z,31.61
2022-12-13T04:57:23.083Z,31.82
2022-12-13T04:59:50.042Z,32.40
2022-12-13T05:02:23.055Z,32.90
2022-12-13T05:04:53.798Z,33.63
2022-12-13T05:07:21.164Z,33.80
2022-12-13T05:09:47.892Z,33.42
2022-12-13T05:12:22.454Z,33.03
2022-12-13T05:14:49.707Z,32.82
2022-12-13T05:17:16.641Z,32.49
2022-12-13T05:19:43.428Z,32.32
2022-12-13T05:22:19.748Z,32.02
2022-12-13T05:24:47.375Z,32.21
2022-12-13T05:27:23.678Z,31.67
2022-12-13T05:30:02.191Z,31.68
2022-12-13T05:32:29.420Z,31.86
2022-12-13T05:34:56.157Z,31.38
2022-12-13T05:37:22.888Z,31.46
2022-12-13T05:39:49.615Z,31.36
2022-12-13T05:42:16.370Z,32.37
2022-12-13T05:44:43.109Z,32.80
2022-12-13T05:47:09.836Z,33.90
2022-12-13T05:49:36.573Z,33.41
2022-12-13T05:52:06.427Z,33.16
2022-12-13T05:54:33.154Z,32.72
2022-12-13T05:57:00.003Z,32.52
2022-12-13T05:59:26.761Z,32.39
2022-12-13T06:01:53.546Z,32.22
2022-12-13T06:04:22.635Z,32.15
2022-12-13T06:06:51.101Z,31.84
2022-12-13T06:09:18.159Z,31.90
2022-12-13T06:11:44.895Z,31.79
2022-12-13T06:14:22.317Z,31.50
2022-12-13T06:16:49.933Z,31.65
2022-12-13T06:19:16.704Z,31.70
2022-12-13T06:21:46.218Z,32.78
2022-12-13T06:24:13.431Z,33.32
2022-12-13T06:26:40.157Z,34.01
2022-12-13T06:29:06.880Z,33.62
2022-12-13T06:31:33.676Z,33.10
2022-12-13T06:34:00.400Z,32.69
2022-12-13T06:36:42.161Z,32.09
2022-12-13T06:39:08.892Z,31.79
2022-12-13T06:41:36.736Z,31.65
2022-12-13T06:44:03.545Z,31.46
2022-12-13T06:46:30.336Z,31.37
2022-12-13T06:48:57.115Z,31.38
2022-12-13T06:51:32.845Z,31.40
2022-12-13T06:54:01.322Z,31.14
2022-12-13T06:56:28.212Z,31.13
2022-12-13T06:59:01.902Z,31.34
2022-12-13T07:01:29.039Z,31.15
2022-12-13T07:04:04.233Z,31.64
2022-12-13T07:06:30.953Z,32.92
2022-12-13T07:08:57.850Z,34.26
2022-12-13T07:11:24.629Z,33.76
2022-12-13T07:13:51.441Z,33.04
2022-12-13T07:16:18.220Z,32.78
2022-12-13T07:18:45.005Z,32.32
2022-12-13T07:21:21.372Z,32.00
2022-12-13T07:23:54.986Z,31.87
2022-12-13T07:26:22.414Z,31.70
2022-12-13T07:28:54.725Z,31.47
2022-12-13T07:31:22.609Z,31.34
2022-12-13T07:33:49.391Z,31.28
2022-12-13T07:36:16.112Z,31.29
2022-12-13T07:38:42.863Z,31.19
2022-12-13T07:41:12.055Z,30.97
2022-12-13T07:43:38.826Z,31.87
2022-12-13T07:46:05.641Z,32.88
2022-12-13T07:48:33.166Z,34.15
2022-12-13T07:50:59.896Z,34.35
2022-12-13T07:53:26.652Z,34.67
2022-12-13T07:55:53.403Z,33.62
2022-12-13T07:58:20.131Z,32.83
2022-12-13T08:00:47.002Z,32.34
2022-12-13T08:03:24.463Z,31.99
2022-12-13T08:05:52.629Z,31.86
2022-12-13T08:08:30.981Z,31.60
2022-12-13T08:10:58.532Z,31.76
2022-12-13T08:13:28.429Z,31.30
2022-12-13T08:15:55.194Z,31.57
2022-12-13T08:18:22.086Z,31.29
2022-12-13T08:20:48.810Z,31.41
2022-12-13T08:23:15.529Z,31.14
2022-12-13T08:25:42.267Z,31.19
2022-12-13T08:28:08.989Z,31.13
2022-12-13T08:30:35.704Z,31.33
2022-12-13T08:33:04.777Z,32.88
2022-12-13T08:35:34.242Z,34.33
2022-12-13T08:38:01.606Z,34.61
2022-12-13T08:40:28.360Z,33.47
2022-12-13T08:42:55.099Z,32.73
2022-12-13T08:45:23.779Z,32.32
2022-12-13T08:47:50.648Z,32.08
2022-12-13T08:50:17.389Z,31.55
2022-12-13T08:52:44.892Z,31.44
2022-12-13T08:55:12.158Z,31.32
2022-12-13T08:57:38.879Z,31.09
2022-12-13T09:00:05.596Z,31.14
2022-12-13T09:02:38.210Z,31.25
2022-12-13T09:05:05.566Z,30.98
2022-12-13T09:07:32.315Z,30.95
2022-12-13T09:09:59.072Z,31.19
2022-12-13T09:12:34.113Z,31.15
2022-12-13T09:15:22.329Z,34.09
2022-12-13T09:17:52.590Z,35.69
2022-12-13T09:20:28.230Z,35.63
2022-12-13T09:23:02.074Z,33.78
2022-12-13T09:25:29.369Z,32.65
2022-12-13T09:28:03.602Z,32.19
2022-12-13T09:30:31.743Z,31.83
2022-12-13T09:32:58.788Z,31.70
2022-12-13T09:35:45.577Z,31.53
2022-12-13T09:38:12.304Z,31.54
2022-12-13T09:40:39.030Z,31.26
2022-12-13T09:43:12.093Z,31.42
2022-12-13T09:45:42.911Z,31.00
2022-12-13T09:48:13.666Z,31.02
2022-12-13T09:50:46.384Z,31.16
2022-12-13T09:53:22.154Z,31.23
2022-12-13T09:55:49.081Z,31.12
2022-12-13T09:58:15.846Z,31.09
2022-12-13T10:00:42.661Z,33.39
2022-12-13T10:03:09.489Z,35.99
2022-12-13T10:05:39.553Z,35.26
2022-12-13T10:08:06.999Z,33.25
2022-12-13T10:10:33.740Z,32.31
2022-12-13T10:13:00.484Z,32.08
2022-12-13T10:15:27.238Z,31.86
2022-12-13T10:17:55.380Z,31.48
2022-12-13T10:20:24.098Z,31.58
2022-12-13T10:23:15.103Z,31.42
2022-12-13T10:25:38.852Z,31.24
2022-12-13T10:28:05.647Z,31.23
2022-12-13T10:30:32.383Z,30.96
2022-12-13T10:32:59.145Z,30.81
2022-12-13T10:35:27.182Z,30.99
2022-12-13T10:37:54.047Z,30.98
2022-12-13T10:40:32.139Z,30.88
2022-12-13T10:42:59.969Z,32.61
2022-12-13T10:45:26.729Z,35.93
2022-12-13T10:47:53.463Z,36.12
2022-12-13T10:50:20.333Z,33.58
2022-12-13T10:52:47.808Z,32.66
2022-12-13T10:55:23.790Z,32.02
2022-12-13T10:57:50.872Z,31.93
2022-12-13T11:00:17.595Z,31.53
2022-12-13T11:02:44.355Z,31.57
2022-12-13T11:05:11.579Z,31.39
2022-12-13T11:07:38.586Z,31.25
2022-12-13T11:10:05.715Z,31.23
2022-12-13T11:12:41.408Z,31.39
2022-12-13T11:15:08.317Z,31.13
2022-12-13T11:17:35.052Z,31.33
2022-12-13T11:20:01.874Z,30.80
2022-12-13T11:22:28.626Z,31.68
2022-12-13T11:24:55.336Z,34.78
2022-12-13T11:27:22.160Z,37.65
2022-12-13T11:29:49.037Z,34.67
2022-12-13T11:32:22.789Z,33.00
2022-12-13T11:34:50.049Z,32.50
2022-12-13T11:37:16.827Z,32.04
2022-12-13T11:39:43.700Z,31.83
2022-12-13T11:42:10.427Z,31.75
2022-12-13T11:44:37.568Z,31.70
2022-12-13T11:47:04.326Z,31.37
2022-12-13T11:49:31.084Z,31.39
2022-12-13T11:51:57.822Z,31.24
2022-12-13T11:54:24.609Z,31.13
2022-12-13T11:56:54.889Z,31.16
2022-12-13T11:59:27.834Z,31.09
2022-12-13T12:01:54.935Z,33.76
2022-12-13T12:04:21.651Z,34.95
2022-12-13T12:06:48.425Z,37.26
2022-12-13T12:09:15.255Z,34.07
2022-12-13T12:11:41.977Z,33.25
2022-12-13T12:14:08.704Z,32.76
2022-12-13T12:16:35.483Z,32.59
2022-12-13T12:19:02.620Z,32.22
2022-12-13T12:21:49.674Z,32.12
2022-12-13T12:24:16.125Z,31.87
2022-12-13T12:26:42.870Z,31.79
2022-12-13T12:29:12.231Z,31.53
2022-12-13T12:31:50.947Z,31.36
2022-12-13T12:34:18.207Z,31.40
2022-12-13T12:36:54.140Z,31.21
2022-12-13T12:39:20.963Z,31.07
2022-12-13T12:41:54.004Z,31.25
2022-12-13T12:44:30.602Z,31.45
2022-12-13T12:47:09.202Z,33.86
2022-12-13T12:49:44.794Z,35.97
2022-12-13T12:52:11.640Z,35.41
2022-12-13T12:54:38.413Z,33.83
2022-12-13T12:57:07.374Z,32.74
2022-12-13T12:59:34.236Z,32.48
2022-12-13T13:02:01.072Z,32.28
2022-12-13T13:04:27.913Z,31.99
2022-12-13T13:06:54.641Z,31.86
2022-12-13T13:09:28.739Z,31.84
2022-12-13T13:11:57.587Z,31.79
2022-12-13T13:14:24.792Z,31.87
2022-12-13T13:16:51.583Z,31.63
2022-12-13T13:19:25.660Z,31.49
2022-12-13T13:21:53.245Z,31.53
2022-12-13T13:24:20.037Z,31.38
2022-12-13T13:26:46.807Z,33.28
2022-12-13T13:29:13.556Z,35.92
2022-12-13T13:31:40.275Z,37.65
2022-12-13T13:34:07.001Z,34.58
2022-12-13T13:36:33.752Z,33.13
2022-12-13T13:39:01.566Z,32.93
2022-12-13T13:41:28.656Z,32.54
2022-12-13T13:43:55.403Z,32.25
2022-12-13T13:46:22.205Z,32.15
2022-12-13T13:48:49.249Z,32.26
2022-12-13T13:51:16.199Z,32.09
2022-12-13T13:53:43.597Z,32.04
2022-12-13T13:56:10.376Z,32.01
2022-12-13T13:58:37.178Z,31.57
2022-12-13T14:01:04.216Z,31.66
2022-12-13T14:03:34.944Z,32.85
2022-12-13T14:06:02.255Z,36.68
2022-12-13T14:08:29.008Z,37.47
2022-12-13T14:10:55.767Z,34.50
2022-12-13T14:13:22.905Z,33.17
2022-12-13T14:15:50.392Z,32.97
2022-12-13T14:18:21.192Z,32.49
2022-12-13T14:20:48.455Z,32.37
2022-12-13T14:23:21.725Z,32.29
2022-12-13T14:25:52.062Z,32.23
2022-12-13T14:28:20.224Z,31.95
2022-12-13T14:30:48.028Z,31.91
2022-12-13T14:33:24.249Z,32.08
2022-12-13T14:35:51.949Z,32.00
2022-12-13T14:38:18.690Z,31.93
2022-12-13T14:40:45.429Z,32.60
2022-12-13T14:43:23.899Z,35.54
2022-12-13T14:45:51.116Z,38.12
2022-12-13T14:48:28.888Z,35.22
2022-12-13T14:50:56.334Z,33.90
2022-12-13T14:53:24.007Z,33.34
2022-12-13T14:55:50.934Z,32.86
2022-12-13T14:58:17.735Z,32.65
2022-12-13T15:00:45.893Z,32.32
2022-12-13T15:03:12.787Z,32.28
2022-12-13T15:05:39.535Z,32.07
2022-12-13T15:08:10.639Z,32.41
2022-12-13T15:10:38.106Z,32.33
2022-12-13T15:13:04.855Z,32.11
2022-12-13T15:15:31.664Z,32.08
2022-12-13T15:17:58.446Z,32.21
2022-12-13T15:20:25.276Z,32.04
2022-12-13T15:22:52.125Z,34.66
2022-12-13T15:25:18.843Z,36.47
2022-12-13T15:27:48.550Z,36.49
2022-12-13T15:30:15.500Z,34.57
2022-12-13T15:32:42.366Z,33.63
2022-12-13T15:35:09.343Z,33.13
2022-12-13T15:37:36.069Z,32.80
2022-12-13T15:40:02.834Z,32.75
2022-12-13T15:42:29.605Z,32.49
2022-12-13T15:44:56.352Z,32.31
2022-12-13T15:47:27.750Z,32.31
2022-12-13T15:49:55.330Z,32.22
2022-12-13T15:52:22.062Z,32.43
2022-12-13T15:54:48.820Z,32.25
2022-12-13T15:57:15.604Z,32.45
2022-12-13T15:59:42.351Z,35.22
2022-12-13T16:02:09.065Z,36.95
2022-12-13T16:04:35.821Z,36.18
2022-12-13T16:07:02.574Z,34.36
2022-12-13T16:09:29.306Z,33.50
2022-12-13T16:11:56.076Z,33.29
2022-12-13T16:14:26.226Z,33.02
2022-12-13T16:16:53.414Z,32.63
2022-12-13T16:19:20.235Z,32.47
2022-12-13T16:21:46.963Z,32.43
2022-12-13T16:24:13.684Z,32.52
2022-12-13T16:26:40.484Z,32.23
2022-12-13T16:29:07.218Z,32.21
2022-12-13T16:31:36.738Z,32.24
2022-12-13T16:34:03.532Z,33.06
2022-12-13T16:36:30.314Z,35.19
2022-12-13T16:38:57.052Z,39.02
2022-12-13T16:41:23.844Z,35.75
2022-12-13T16:43:50.567Z,34.46
2022-12-13T16:47:18.161Z,33.54
2022-12-13T16:49:04.009Z,32.94
2022-12-13T16:51:30.754Z,33.11
2022-12-13T16:53:57.520Z,32.86
2022-12-13T16:56:24.512Z,32.74
2022-12-13T16:58:51.334Z,32.39
2022-12-13T17:01:18.106Z,32.50
2022-12-13T17:03:44.894Z,32.44
2022-12-13T17:06:11.658Z,32.40
2022-12-13T17:08:38.386Z,32.16
2022-12-13T17:11:06.887Z,32.18
2022-12-13T17:13:33.705Z,32.15
2022-12-13T17:16:00.494Z,33.10
2022-12-13T17:18:27.236Z,34.93
2022-12-13T17:20:58.366Z,38.57
2022-12-13T17:23:27.134Z,35.55
2022-12-13T17:25:58.434Z,34.41
2022-12-13T17:28:25.652Z,33.52
2022-12-13T17:30:54.969Z,33.36
2022-12-13T17:33:22.355Z,33.04
2022-12-13T17:35:49.260Z,32.90
2022-12-13T17:38:15.980Z,32.73
2022-12-13T17:40:42.713Z,32.42
2022-12-13T17:43:31.412Z,32.43
2022-12-13T17:46:00.478Z,32.49
2022-12-13T17:48:27.554Z,32.41
2022-12-13T17:50:54.836Z,32.33
2022-12-13T17:53:21.969Z,32.15
2022-12-13T17:55:48.829Z,32.77
2022-12-13T17:58:15.630Z,35.46
2022-12-13T18:00:42.466Z,38.55
2022-12-13T18:03:09.205Z,36.07
2022-12-13T18:05:36.770Z,34.38
2022-12-13T18:08:03.510Z,33.50
2022-12-13T18:10:30.845Z,33.07
2022-12-13T18:12:57.637Z,33.20
2022-12-13T18:15:24.488Z,32.83
2022-12-13T18:20:37.990Z,32.68
2022-12-13T18:23:04.760Z,32.70
2022-12-13T18:25:31.694Z,32.72
2022-12-13T18:28:01.039Z,32.25
2022-12-13T18:30:28.236Z,32.50
2022-12-13T18:32:54.998Z,32.14
2022-12-13T18:35:21.751Z,32.10
2022-12-13T18:37:48.483Z,33.97
2022-12-13T18:40:15.333Z,36.97
2022-12-13T18:42:42.158Z,37.39
2022-12-13T18:45:08.961Z,34.97
2022-12-13T18:47:35.688Z,33.76
2022-12-13T18:50:02.430Z,33.43
2022-12-13T18:52:29.152Z,33.15
2022-12-13T18:54:55.922Z,32.93
2022-12-13T18:57:22.675Z,32.82
2022-12-13T18:59:54.794Z,32.61
2022-12-13T19:02:21.926Z,32.49
2022-12-13T19:04:55.662Z,32.69
2022-12-13T19:07:22.785Z,32.48
2022-12-13T19:09:57.908Z,32.26
2022-12-13T19:12:24.675Z,32.40
2022-12-13T19:14:54.730Z,32.14
2022-12-13T19:17:22.099Z,34.73
2022-12-13T19:19:48.841Z,37.40
2022-12-13T19:22:15.910Z,36.54
2022-12-13T19:24:42.719Z,34.70
2022-12-13T19:27:09.533Z,33.71
2022-12-13T19:29:36.273Z,33.17
2022-12-13T19:32:03.611Z,33.29
2022-12-13T19:34:30.351Z,32.84
2022-12-13T19:37:00.345Z,32.74
2022-12-13T19:39:31.461Z,32.70
2022-12-13T19:41:58.189Z,32.74
2022-12-13T19:44:24.921Z,32.68
2022-12-13T19:46:51.842Z,32.44
2022-12-13T19:49:19.690Z,32.30
2022-12-13T19:51:46.480Z,32.21
2022-12-13T19:54:13.544Z,32.05
2022-12-13T19:56:40.265Z,32.02
2022-12-13T19:59:06.989Z,32.47
2022-12-13T20:01:33.864Z,34.70
2022-12-13T20:04:01.569Z,37.45
2022-12-13T20:06:28.301Z,36.62
2022-12-13T20:08:55.054Z,34.46
2022-12-13T20:11:21.835Z,33.65
2022-12-13T20:13:48.583Z,33.43
2022-12-13T20:16:15.461Z,33.18
2022-12-13T20:18:42.260Z,32.74
2022-12-13T20:21:12.144Z,32.62
2022-12-13T20:23:40.014Z,32.48
2022-12-13T20:26:06.744Z,32.29
2022-12-13T20:28:33.489Z,32.32
2022-12-13T20:31:00.305Z,32.29
2022-12-13T20:33:27.566Z,32.32
2022-12-13T20:36:22.964Z,32.34
2022-12-13T20:38:41.321Z,32.29
2022-12-13T20:41:09.632Z,32.24
2022-12-13T20:43:36.416Z,34.00
2022-12-13T20:46:03.414Z,35.56
2022-12-13T20:48:30.204Z,37.05
2022-12-13T20:50:56.933Z,35.86
2022-12-13T20:53:23.814Z,34.28
2022-12-13T20:55:50.804Z,33.65
2022-12-13T20:58:17.536Z,33.25
2022-12-13T21:00:44.324Z,32.82
2022-12-13T21:03:11.074Z,32.70
2022-12-13T21:05:37.811Z,32.72
2022-12-13T21:08:23.413Z,32.43
2022-12-13T21:10:50.146Z,32.25
2022-12-13T21:13:16.908Z,32.47
2022-12-13T21:15:43.645Z,32.15
2022-12-13T21:18:10.494Z,32.40
2022-12-13T21:20:37.300Z,31.98
2022-12-13T21:23:04.089Z,31.94
2022-12-13T21:25:30.933Z,31.90
2022-12-13T21:27:57.657Z,31.77
2022-12-13T21:30:24.523Z,33.51
2022-12-13T21:32:52.903Z,34.47
2022-12-13T21:35:19.816Z,37.00
2022-12-13T21:37:48.523Z,35.55
2022-12-13T21:40:15.666Z,34.01
2022-12-13T21:42:42.387Z,33.46
2022-12-13T21:45:09.139Z,33.09
2022-12-13T21:47:35.864Z,32.78
2022-12-13T21:50:02.827Z,32.78
2022-12-13T21:52:29.573Z,32.49
2022-12-13T21:55:15.293Z,32.36
2022-12-13T21:58:07.417Z,32.17
2022-12-13T22:00:34.671Z,32.07
2022-12-13T22:03:01.427Z,31.99
2022-12-13T22:05:28.165Z,32.09
2022-12-13T22:07:54.888Z,32.13
2022-12-13T22:10:21.617Z,31.92
2022-12-13T22:12:48.357Z,31.83
2022-12-13T22:15:15.084Z,32.55
2022-12-13T22:17:41.808Z,34.63
2022-12-13T22:20:08.618Z,37.11
2022-12-13T22:22:35.451Z,35.64
2022-12-13T22:25:02.236Z,33.88
2022-12-13T22:27:28.980Z,33.24
2022-12-13T22:29:58.805Z,32.87
2022-12-13T22:32:25.556Z,32.60
2022-12-13T22:34:52.505Z,32.49
2022-12-13T22:37:19.229Z,32.42
2022-12-13T22:39:46.119Z,32.34
2022-12-13T22:42:12.889Z,32.41
2022-12-13T22:44:39.622Z,32.09
2022-12-13T22:47:06.604Z,32.10
2022-12-13T22:49:33.373Z,31.81
2022-12-13T22:52:00.118Z,31.78
2022-12-13T22:54:26.838Z,31.68
2022-12-13T22:56:53.578Z,31.68
2022-12-13T22:59:20.293Z,33.36
2022-12-13T23:01:47.689Z,35.24
2022-12-13T23:04:14.616Z,36.21
2022-12-13T23:06:41.455Z,34.19
2022-12-13T23:09:08.187Z,33.33
2022-12-13T23:11:53.749Z,33.07
2022-12-13T23:14:20.508Z,32.57
2022-12-13T23:16:47.423Z,32.27
2022-12-13T23:22:01.017Z,32.05
2022-12-13T23:24:27.955Z,32.07
2022-12-13T23:26:54.771Z,32.17
2022-12-13T23:29:21.510Z,32.07
2022-12-13T23:31:48.660Z,31.63
2022-12-13T23:34:15.857Z,31.85
2022-12-13T23:36:42.632Z,31.70
2022-12-13T23:39:09.375Z,31.90
2022-12-13T23:41:36.094Z,33.63
2022-12-13T23:44:02.848Z,35.48
2022-12-13T23:46:30.012Z,36.60
2022-12-13T23:48:56.779Z,34.43
2022-12-13T23:51:23.496Z,33.37
2022-12-13T23:53:50.237Z,32.95
2022-12-13T23:56:16.962Z,32.56
2022-12-13T23:58:43.716Z,32.41
